Time;durP1;ratioP1;P1;durP2;ratioP2;P2;SDS_P1;SDS_P2;PMS_P1;PMS_P2;Temp;Humidity;BMP_temperature;BMP_pressure;BME280_temperature;BME280_humidity;BME280_pressure;Samples;Min_cycle;Max_cycle;Signal;HPM_P1;HPM_P2
2023/03/25 00:00:38;;;;;;;0.50;0.50;;;;;6.80;95380.00;;;;5074484;28;20299;-59
2023/03/25 00:03:05;;;;;;;1.77;1.67;;;;;6.80;95364.00;;;;5074381;28;20631;-62
2023/03/25 00:05:33;;;;;;;0.50;0.50;;;;;7.00;95359.00;;;;5074345;28;20556;-62
2023/03/25 00:08:01;;;;;;;0.67;0.67;;;;;6.70;95357.00;;;;5074482;28;20264;-60
2023/03/25 00:10:30;;;;;;;0.60;0.60;;;;;6.70;95366.00;;;;5074052;28;20249;-60
2023/03/25 00:13:03;;;;;;;0.53;0.53;;;;;6.70;95370.00;;;;5074645;28;20217;-61
2023/03/25 00:15:32;;;;;;;0.87;0.87;;;;;6.90;95364.00;;;;5074057;28;20207;-61
2023/03/25 00:18:00;;;;;;;5.73;1.70;;;;;6.90;95353.00;;;;5075093;28;20263;-61
2023/03/25 00:20:28;;;;;;;0.60;0.60;;;;;6.90;95346.00;;;;5074067;28;20681;-61
2023/03/25 00:22:55;;;;;;;0.70;0.70;;;;;7.00;95335.00;;;;5073702;28;20218;-60
2023/03/25 00:25:23;;;;;;;0.50;0.50;;;;;7.00;95345.00;;;;5073994;28;20202;-60
2023/03/25 00:27:52;;;;;;;1.17;1.07;;;;;6.90;95355.00;;;;5073869;28;20751;-60
2023/03/25 00:30:20;;;;;;;0.57;0.57;;;;;6.70;95353.00;;;;5073672;28;20195;-60
2023/03/25 00:32:51;;;;;;;0.60;0.60;;;;;6.70;95355.00;;;;5073520;28;20309;-60
2023/03/25 00:35:19;;;;;;;0.60;0.60;;;;;6.90;95352.00;;;;5073612;28;20191;-61
2023/03/25 00:37:46;;;;;;;0.67;0.67;;;;;6.90;95341.00;;;;5073960;28;20207;-60
2023/03/25 00:40:14;;;;;;;0.57;0.57;;;;;6.90;95335.00;;;;5073490;28;20689;-61
2023/03/25 00:42:43;;;;;;;0.93;0.87;;;;;6.90;95352.00;;;;5073563;28;20214;-60
2023/03/25 00:45:12;;;;;;;0.60;0.60;;;7.60;75.90;6.90;95325.00;;;;5073397;28;20196;-60
2023/03/25 00:47:40;;;;;;;1.23;1.13;;;7.60;75.70;6.80;95316.00;;;;5073569;28;20234;-60
2023/03/25 00:50:08;;;;;;;0.63;0.63;;;;;6.70;95320.00;;;;5073907;28;20184;-60
2023/03/25 00:52:36;;;;;;;0.60;0.60;;;;;6.80;95312.00;;;;5073090;28;20222;-60
2023/03/25 00:55:04;;;;;;;0.57;0.57;;;;;6.50;95325.00;;;;5073607;28;20213;-60
2023/03/25 00:57:31;;;;;;;0.70;0.70;;;;;6.50;95313.00;;;;5072223;28;20199;-60
2023/03/25 00:59:59;;;;;;;0.50;0.50;;;;;6.40;95323.00;;;;5073228;28;20665;-60
2023/03/25 01:02:28;;;;;;;0.90;0.90;;;;;6.50;95317.00;;;;5073180;28;20202;-60
2023/03/25 01:04:56;;;;;;;0.70;0.70;;;;;6.50;95325.00;;;;5073160;28;20194;-60
2023/03/25 01:07:23;;;;;;;0.60;0.60;;;;;6.50;95329.00;;;;5071902;28;20274;-60
2023/03/25 01:09:51;;;;;;;0.60;0.60;;;;;6.50;95340.00;;;;5073057;28;20195;-61
2023/03/25 01:12:18;;;;;;;0.50;0.50;;;;;6.30;95355.00;;;;5072993;28;20192;-61
2023/03/25 01:14:46;;;;;;;0.77;0.77;;;;;6.50;95345.00;;;;5073359;28;20195;-60
2023/03/25 01:17:14;;;;;;;0.60;0.60;;;;;6.60;95326.00;;;;5071795;28;20620;-60
2023/03/25 01:19:43;;;;;;;0.50;0.50;;;;;6.70;95312.00;;;;5072828;28;20218;-60
2023/03/25 01:22:10;;;;;;;1.23;1.10;;;;;6.70;95304.00;;;;5073016;28;20252;-60
2023/03/25 01:24:38;;;;;;;0.60;0.60;;;;;6.70;95307.00;;;;5073219;28;20195;-61
2023/03/25 01:27:05;;;;;;;0.60;0.60;;;;;6.60;95304.00;;;;5072884;28;20225;-61
2023/03/25 01:29:33;;;;;;;0.60;0.60;;;;;6.50;95311.00;;;;5072883;28;20196;-60
2023/03/25 01:32:00;;;;;;;0.50;0.50;;;;;6.50;95316.00;;;;5072927;28;20206;-61
2023/03/25 01:34:28;;;;;;;1.43;1.30;;;;;6.60;95312.00;;;;5072823;28;20238;-61
2023/03/25 01:36:57;;;;;;;0.60;0.60;;;;;6.50;95312.00;;;;5073173;28;20217;-61
2023/03/25 01:39:25;;;;;;;3.50;1.07;;;;;6.40;95316.00;;;;5073129;28;20198;-60
2023/03/25 01:41:53;;;;;;;0.50;0.50;;;;;6.50;95307.00;;;;5072840;28;20199;-61
2023/03/25 01:44:59;;;;;;;0.60;0.60;;;;;6.30;95300.00;;;;5071482;28;20219;-60
2023/03/25 01:47:26;;;;;;;0.60;0.60;;;;;6.20;95301.00;;;;5071458;28;20215;-61
2023/03/25 01:49:54;;;;;;;2.20;1.00;;;;;6.30;95296.00;;;;5073640;28;20207;-60
2023/03/25 01:52:28;;;;;;;0.50;0.50;;;;;6.40;95298.00;;;;5072590;28;20213;-60
2023/03/25 01:54:57;;;;;;;0.70;0.70;;;;;6.50;95282.00;;;;5072697;28;20176;-61
2023/03/25 01:57:25;;;;;;;0.80;0.80;;;;;6.60;95286.00;;;;5072705;28;20192;-60
2023/03/25 01:59:55;;;;;;;0.60;0.60;;;;;6.40;95280.00;;;;5072034;28;20198;-60
2023/03/25 02:02:35;;;;;;;0.70;0.70;;;;;6.30;95287.00;;;;5072870;28;20245;-61
2023/03/25 02:05:09;;;;;;;0.60;0.60;;;;;6.40;95290.00;;;;5072881;28;20228;-60
2023/03/25 02:07:41;;;;;;;0.50;0.50;;;;;6.30;95293.00;;;;5072623;28;20245;-60
2023/03/25 02:10:12;;;;;;;0.60;0.60;;;;;6.20;95300.00;;;;5072643;28;20184;-60
2023/03/25 02:12:40;;;;;;;0.70;0.70;;;;;6.40;95297.00;;;;5071327;28;20690;-60
2023/03/25 02:15:10;;;;;;;1.07;1.07;;;;;6.50;95310.00;;;;5072480;28;20230;-60
2023/03/25 02:17:49;;;;;;;0.70;0.70;;;;;6.50;95315.00;;;;5072505;28;20190;-60
2023/03/25 02:21:02;;;;;;;0.50;0.50;;;;;6.50;95339.00;;;;5071581;28;20202;-60
2023/03/25 02:24:05;;;;;;;0.50;0.50;;;;;6.60;95370.00;;;;5072372;28;20246;-61
2023/03/25 02:27:13;;;;;;;0.60;0.60;;;;;6.10;95349.00;;;;5072415;28;20205;-60
2023/03/25 02:29:57;;;;;;;0.50;0.50;;;;;6.00;95383.00;;;;5072772;28;20180;-60
2023/03/25 02:32:50;;;;;;;0.60;0.60;;;;;6.10;95362.00;;;;5074977;28;20575;-60
2023/03/25 02:35:46;;;;;;;0.83;0.83;;;6.80;78.30;6.00;95386.00;;;;5076413;28;20187;-60
2023/03/25 02:38:35;;;;;;;0.60;0.60;;;;;6.00;95365.00;;;;5075822;28;20195;-60
2023/03/25 02:41:10;;;;;;;0.97;0.80;;;;;6.10;95352.00;;;;5075908;28;20208;-61
2023/03/25 02:43:45;;;;;;;0.50;0.50;;;;;6.00;95333.00;;;;5075655;28;20218;-60
2023/03/25 02:46:16;;;;;;;0.70;0.70;;;;;5.90;95323.00;;;;5074347;28;20192;-62
2023/03/25 02:48:50;;;;;;;0.70;0.70;;;;;6.00;95310.00;;;;5075719;28;20264;-61
2023/03/25 02:51:24;;;;;;;0.60;0.60;;;;;6.10;95319.00;;;;5075709;28;20191;-61
2023/03/25 02:53:54;;;;;;;0.60;0.60;;;;;6.00;95316.00;;;;5074020;28;20695;-61
2023/03/25 02:56:25;;;;;;;0.60;0.60;;;;;6.00;95302.00;;;;5075432;28;20682;-61
2023/03/25 02:58:55;;;;;;;0.77;0.77;;;;;6.20;95325.00;;;;5075404;28;20237;-61
2023/03/25 03:01:25;;;;;;;0.77;0.77;;;;;6.00;95308.00;;;;5075580;28;20312;-61
2023/03/25 03:03:53;;;;;;;0.60;0.60;;;;;6.10;95331.00;;;;5075801;28;20262;-62
2023/03/25 03:06:23;;;;;;;0.60;0.60;;;;;5.90;95297.00;;;;5075209;28;20211;-61
2023/03/25 03:09:13;;;;;;;0.60;0.60;;;;;5.80;95293.00;;;;5075188;28;20262;-61
2023/03/25 03:11:53;;;;;;;0.60;0.60;;;;;5.80;95291.00;;;;5075386;28;20627;-61
2023/03/25 03:14:34;;;;;;;0.53;0.53;;;;;5.90;95299.00;;;;5075658;28;20232;-61
2023/03/25 03:17:17;;;;;;;1.07;0.90;;;6.70;75.60;6.00;95305.00;;;;5075577;28;20194;-61
2023/03/25 03:19:50;;;;;;;0.60;0.60;;;6.70;74.40;5.90;95306.00;;;;5075339;28;20205;-61
2023/03/25 03:22:39;;;;;;;0.60;0.60;;;6.60;76.30;5.80;95293.00;;;;5075941;28;20639;-61
2023/03/25 03:25:20;;;;;;;0.70;0.70;;;6.30;79.30;5.50;95301.00;;;;5075213;28;20218;-61
2023/03/25 03:27:55;;;;;;;0.60;0.60;;;6.20;80.50;5.40;95289.00;;;;5075102;28;20251;-61
2023/03/25 03:30:31;;;;;;;0.50;0.50;;;;;5.30;95292.00;;;;5075153;28;20183;-61
2023/03/25 03:33:08;;;;;;;0.50;0.50;;;;;5.30;95297.00;;;;5074793;28;20252;-61
2023/03/25 03:35:40;;;;;;;0.67;0.67;;;;;5.40;95289.00;;;;5074985;28;20245;-61
2023/03/25 03:38:12;;;;;;;0.50;0.50;;;;;5.50;95303.00;;;;5075258;28;20173;-61
2023/03/25 03:40:45;;;;;;;0.63;0.63;;;;;5.50;95288.00;;;;5074876;28;20187;-61
2023/03/25 03:43:19;;;;;;;2.03;0.97;;;;;5.50;95300.00;;;;5074799;28;20208;-61
2023/03/25 03:45:51;;;;;;;0.57;0.57;;;;;5.40;95294.00;;;;5074616;28;20187;-61
2023/03/25 03:48:23;;;;;;;1.07;0.97;;;;;5.40;95293.00;;;;5074385;28;20245;-61
2023/03/25 03:50:55;;;;;;;0.60;0.60;;;;;5.60;95291.00;;;;5075017;28;20181;-61
2023/03/25 03:53:27;;;;;;;0.60;0.60;;;;;5.70;95299.00;;;;5074348;28;20229;-61
2023/03/25 03:56:02;;;;;;;0.50;0.50;;;;;5.50;95298.00;;;;5074845;28;20189;-61
2023/03/25 03:58:33;;;;;;;0.60;0.60;;;;;5.70;95299.00;;;;5074184;28;20271;-62
2023/03/25 04:01:08;;;;;;;0.50;0.50;;;;;5.60;95306.00;;;;5072981;28;20221;-61
2023/03/25 04:03:40;;;;;;;0.60;0.60;;;;;5.50;95308.00;;;;5072823;28;20705;-61
2023/03/25 04:06:16;;;;;;;0.60;0.60;;;;;5.60;95300.00;;;;5074142;28;20248;-61
2023/03/25 04:08:52;;;;;;;0.60;0.60;;;;;5.60;95303.00;;;;5074248;28;20222;-61
2023/03/25 04:11:24;;;;;;;0.60;0.60;;;;;5.60;95320.00;;;;5074309;28;20183;-61
2023/03/25 04:13:57;;;;;;;0.60;0.60;;;;;5.70;95305.00;;;;5073818;28;20695;-61
2023/03/25 04:16:24;;;;;;;0.50;0.50;;;;;5.70;95296.00;;;;5073880;28;20184;-61
2023/03/25 04:18:52;;;;;;;0.60;0.60;;;;;5.70;95309.00;;;;5073956;28;20206;-61
2023/03/25 04:21:19;;;;;;;0.60;0.60;;;6.50;74.60;5.70;95337.00;;;;5073997;28;20221;-61
2023/03/25 04:23:48;;;;;;;0.70;0.70;;;;;5.80;95323.00;;;;5074009;28;20749;-61
2023/03/25 04:26:16;;;;;;;0.60;0.60;;;;;5.90;95322.00;;;;5073760;28;20211;-61
2023/03/25 04:28:45;;;;;;;0.70;0.70;;;;;5.90;95316.00;;;;5073976;28;20263;-61
2023/03/25 04:31:15;;;;;;;0.90;0.90;;;;;5.90;95309.00;;;;5073554;28;20187;-61
2023/03/25 04:33:45;;;;;;;0.60;0.60;;;6.50;73.50;5.70;95309.00;;;;5073742;28;20211;-61
2023/03/25 04:36:13;;;;;;;0.50;0.50;;;;;5.80;95295.00;;;;5073848;28;20245;-61
2023/03/25 04:38:44;;;;;;;0.63;0.63;;;;;5.70;95300.00;;;;5074143;28;20192;-61
2023/03/25 04:41:14;;;;;;;0.90;0.90;;;;;5.70;95306.00;;;;5073393;28;20267;-61
2023/03/25 04:43:44;;;;;;;0.70;0.70;;;;;5.70;95304.00;;;;5073845;28;20281;-61
2023/03/25 04:46:15;;;;;;;0.60;0.60;;;;;5.90;95296.00;;;;5073601;28;20205;-61
2023/03/25 04:48:43;;;;;;;0.50;0.50;;;;;5.80;95298.00;;;;5073449;28;20211;-61
2023/03/25 04:51:12;;;;;;;0.70;0.70;;;;;5.90;95296.00;;;;5073877;28;20191;-61
2023/03/25 04:53:40;;;;;;;0.60;0.60;;;;;5.80;95300.00;;;;5073188;28;20220;-61
2023/03/25 04:56:14;;;;;;;0.60;0.60;;;;;5.80;95311.00;;;;5072874;28;20198;-61
2023/03/25 04:58:42;;;;;;;0.60;0.60;;;;;5.70;95316.00;;;;5073729;28;20184;-61
2023/03/25 05:01:19;;;;;;;0.60;0.60;;;;;5.70;95318.00;;;;5073438;28;20216;-62
2023/03/25 05:03:49;;;;;;;0.50;0.50;;;;;5.70;95321.00;;;;5071818;28;20586;-61
2023/03/25 05:06:17;;;;;;;0.83;0.83;;;;;5.80;95334.00;;;;5073749;28;20216;-61
2023/03/25 05:08:44;;;;;;;0.60;0.60;;;;;5.70;95333.00;;;;5072987;28;20219;-62
2023/03/25 05:11:12;;;;;;;0.93;0.93;;;;;5.70;95338.00;;;;5073373;28;20313;-61
2023/03/25 05:13:39;;;;;;;0.70;0.70;;;;;5.70;95338.00;;;;5073694;28;20228;-61
2023/03/25 05:16:07;;;;;;;0.90;0.90;;;;;5.90;95339.00;;;;5073027;28;20191;-62
2023/03/25 05:18:36;;;;;;;0.60;0.60;;;;;6.00;95344.00;;;;5073219;28;20187;-61
2023/03/25 05:21:04;;;;;;;0.70;0.70;;;;;6.10;95336.00;;;;5073041;28;20660;-61
2023/03/25 05:23:31;;;;;;;0.53;0.53;;;;;6.10;95332.00;;;;5073220;28;20607;-61
2023/03/25 05:25:59;;;;;;;0.73;0.73;;;;;6.00;95346.00;;;;5073569;28;20187;-61
2023/03/25 05:28:26;;;;;;;1.47;1.23;;;;;6.20;95339.00;;;;5072889;28;20207;-61
2023/03/25 05:30:54;;;;;;;0.50;0.50;;;;;6.20;95337.00;;;;5071992;28;20531;-61
2023/03/25 05:33:22;;;;;;;0.60;0.60;;;;;6.20;95344.00;;;;5072863;28;20239;-61
2023/03/25 05:35:50;;;;;;;0.93;0.93;;;;;6.00;95340.00;;;;5071646;28;20199;-61
2023/03/25 05:38:18;;;;;;;0.73;0.73;;;;;6.00;95337.00;;;;5071608;28;20191;-61
2023/03/25 05:40:46;;;;;;;1.00;1.00;;;;;6.20;95356.00;;;;5073029;28;20198;-62
2023/03/25 05:43:14;;;;;;;0.60;0.60;;;;;6.00;95370.00;;;;5071441;28;20268;-61
2023/03/25 05:45:42;;;;;;;0.50;0.50;;;;;6.10;95377.00;;;;5073239;28;20187;-62
2023/03/25 05:48:09;;;;;;;0.77;0.77;;;;;6.00;95376.00;;;;5072627;28;20211;-61
2023/03/25 05:50:41;;;;;;;0.60;0.60;;;;;6.10;95368.00;;;;5072679;28;20221;-61
2023/03/25 05:53:12;;;;;;;0.57;0.57;;;;;5.90;95368.00;;;;5071290;28;20230;-61
2023/03/25 05:55:39;;;;;;;2.53;1.47;;;;;5.80;95376.00;;;;5073435;28;20275;-61
2023/03/25 05:58:07;;;;;;;1.03;1.03;;;;;5.90;95377.00;;;;5072692;28;20198;-62
2023/03/25 06:00:35;;;;;;;15.97;0.90;;;;;6.00;95381.00;;;;5073081;28;20192;-61
2023/03/25 06:03:02;;;;;;;0.60;0.60;;;;;5.70;95386.00;;;;5072539;28;20211;-61
2023/03/25 06:05:30;;;;;;;0.90;0.90;;;;;5.80;95384.00;;;;5073318;28;20681;-62
2023/03/25 06:07:57;;;;;;;1.00;1.00;;;;;6.00;95379.00;;;;5076647;28;20191;-62
2023/03/25 06:10:26;;;;;;;0.50;0.50;;;;;6.20;95383.00;;;;5076887;28;20211;-61
2023/03/25 06:12:54;;;;;;;0.50;0.50;;;;;6.00;95393.00;;;;5076512;28;20273;-61
2023/03/25 06:15:27;;;;;;;0.80;0.80;;;;;6.00;95383.00;;;;5076394;28;20733;-61
2023/03/25 06:17:55;;;;;;;1.33;1.23;;;;;6.10;95376.00;;;;5076581;28;20217;-61
2023/03/25 06:20:22;;;;;;;1.10;1.10;;;;;6.00;95379.00;;;;5076133;28;20194;-61
2023/03/25 06:22:50;;;;;;;0.53;0.53;;;;;6.10;95384.00;;;;5076095;28;20211;-61
2023/03/25 06:25:19;;;;;;;0.50;0.50;;;;;6.10;95385.00;;;;5076132;28;20206;-61
2023/03/25 06:27:50;;;;;;;0.70;0.70;;;;;5.90;95381.00;;;;5076594;28;20226;-60
2023/03/25 06:30:19;;;;;;;0.67;0.67;;;;;6.00;95378.00;;;;5076916;28;20709;-60
2023/03/25 06:32:49;;;;;;;0.60;0.60;;;;;6.00;95366.00;;;;5075947;28;20225;-61
2023/03/25 06:35:18;;;;;;;0.60;0.60;;;;;5.80;95366.00;;;;5076162;28;20620;-60
2023/03/25 06:37:58;;;;;;;0.50;0.50;;;;;5.90;95382.00;;;;5075813;28;20287;-60
2023/03/25 06:40:28;;;;;;;2.13;1.50;;;;;6.20;95387.00;;;;5075815;28;20294;-60
2023/03/25 06:42:57;;;;;;;0.60;0.60;;;;;6.30;95384.00;;;;5075656;28;20211;-60
2023/03/25 06:45:25;;;;;;;0.60;0.60;;;;;6.30;95406.00;;;;5075628;28;20277;-60
2023/03/25 06:47:52;;;;;;;0.50;0.50;;;;;6.30;95394.00;;;;5076259;28;20205;-61
2023/03/25 06:50:19;;;;;;;1.47;1.43;;;;;6.30;95399.00;;;;5076272;28;20223;-60
2023/03/25 06:52:47;;;;;;;0.57;0.57;;;;;6.20;95401.00;;;;5075731;28;20230;-61
2023/03/25 06:55:14;;;;;;;0.60;0.60;;;;;6.20;95403.00;;;;5075808;28;20644;-60
2023/03/25 06:57:42;;;;;;;0.60;0.60;;;;;6.30;95399.00;;;;5074365;28;20199;-61
2023/03/25 07:00:12;;;;;;;1.20;1.20;;;;;6.40;95409.00;;;;5075616;28;20199;-60
2023/03/25 07:02:39;;;;;;;0.57;0.57;;;;;6.40;95404.00;;;;5075644;28;20210;-60
2023/03/25 07:05:08;;;;;;;0.60;0.60;;;;;6.30;95403.00;;;;5073961;28;20691;-60
2023/03/25 07:07:35;;;;;;;0.60;0.60;;;;;6.50;95401.00;;;;5074303;28;20203;-60
2023/03/25 07:10:03;;;;;;;0.50;0.50;;;;;6.20;95401.00;;;;5075408;28;20280;-61
2023/03/25 07:12:33;;;;;;;0.50;0.50;;;;;6.20;95409.00;;;;5075430;28;20230;-61
2023/03/25 07:15:01;;;;;;;0.50;0.50;;;;;6.50;95403.00;;;;5075270;28;20202;-60
2023/03/25 07:17:30;;;;;;;0.60;0.60;;;;;6.20;95397.00;;;;5073466;28;20238;-60
2023/03/25 07:19:57;;;;;;;0.60;0.60;;;;;6.30;95400.00;;;;5075282;28;20204;-60
2023/03/25 07:22:24;;;;;;;0.60;0.60;;;;;6.40;95403.00;;;;5075240;28;20252;-60
2023/03/25 07:24:52;;;;;;;6.67;1.53;;;;;6.20;95407.00;;;;5074901;28;20194;-60
2023/03/25 07:27:20;;;;;;;1.57;1.47;;;;;6.20;95418.00;;;;5073921;28;20202;-60
2023/03/25 07:29:47;;;;;;;0.83;0.83;;;;;6.20;95409.00;;;;5074940;28;20265;-60
2023/03/25 07:32:14;;;;;;;0.60;0.60;;;;;6.40;95409.00;;;;5074870;28;20194;-60
2023/03/25 07:34:43;;;;;;;0.60;0.60;;;;;6.40;95416.00;;;;5074665;28;20580;-60
2023/03/25 07:37:11;;;;;;;0.60;0.60;;;;;6.50;95404.00;;;;5074923;28;20236;-60
2023/03/25 07:39:38;;;;;;;0.60;0.60;;;;;6.80;95415.00;;;;5074568;28;20195;-60
2023/03/25 07:42:06;;;;;;;0.67;0.67;;;;;7.10;95416.00;;;;5074715;28;20706;-60
2023/03/25 07:44:34;;;;;;;0.60;0.60;;;;;6.90;95411.00;;;;5073094;28;20226;-60
2023/03/25 07:47:01;;;;;;;1.53;1.43;;;;;7.20;95410.00;;;;5075004;28;20270;-61
2023/03/25 07:49:29;;;;;;;0.60;0.60;;;;;7.40;95419.00;;;;5074745;28;20230;-61
2023/03/25 07:51:57;;;;;;;0.60;0.60;;;;;7.10;95414.00;;;;5074954;28;20195;-61
2023/03/25 07:54:25;;;;;;;0.57;0.57;;;;;7.30;95410.00;;;;5074321;28;20273;-60
2023/03/25 07:56:53;;;;;;;0.67;0.67;;;;;7.50;95402.00;;;;5074332;28;20191;-61
2023/03/25 07:59:20;;;;;;;0.60;0.60;;;;;7.20;95415.00;;;;5074522;28;20612;-62
2023/03/25 08:01:48;;;;;;;0.60;0.60;;;;;7.30;95407.00;;;;5074558;28;20585;-61
2023/03/25 08:04:15;;;;;;;0.60;0.60;;;;;7.40;95405.00;;;;5074097;28;20207;-62
2023/03/25 08:06:43;;;;;;;0.70;0.70;;;;;7.20;95407.00;;;;5074101;28;20196;-62
2023/03/25 08:09:12;;;;;;;0.60;0.60;;;;;6.90;95411.00;;;;5073319;28;20582;-62
2023/03/25 08:11:39;;;;;;;0.60;0.60;;;;;6.80;95416.00;;;;5072986;28;20196;-62
2023/03/25 08:14:07;;;;;;;0.60;0.60;;;;;6.70;95422.00;;;;5074112;28;20223;-62
2023/03/25 08:16:34;;;;;;;0.70;0.70;;;;;6.40;95425.00;;;;5074010;28;20197;-62
2023/03/25 08:19:02;;;;;;;0.80;0.80;;;;;6.30;95430.00;;;;5074107;28;20195;-60
2023/03/25 08:21:29;;;;;;;0.60;0.60;;;;;6.20;95430.00;;;;5073836;28;20214;-60
2023/03/25 08:24:00;;;;;;;0.60;0.60;;;;;6.30;95413.00;;;;5073824;28;20292;-61
2023/03/25 08:26:30;;;;;;;0.60;0.60;;;;;6.10;95412.00;;;;5073705;28;20272;-64
2023/03/25 08:28:58;;;;;;;0.60;0.60;;;;;6.10;95424.00;;;;5072921;28;20199;-70
2023/03/25 08:31:29;;;;;;;0.60;0.60;;;;;6.20;95420.00;;;;5073914;28;20244;-68
2023/03/25 08:33:57;;;;;;;0.60;0.60;;;;;6.20;95423.00;;;;5072208;28;20235;-67
2023/03/25 08:36:25;;;;;;;0.70;0.70;;;;;5.90;95428.00;;;;5073856;28;20221;-66
2023/03/25 08:38:52;;;;;;;0.50;0.50;;;;;6.00;95421.00;;;;5074367;28;20192;-66
2023/03/25 08:41:20;;;;;;;0.60;0.60;;;;;6.30;95425.00;;;;5073533;28;20192;-65
2023/03/25 08:43:50;;;;;;;0.80;0.80;;;;;6.30;95434.00;;;;5072323;28;20218;-66
2023/03/25 08:46:17;;;;;;;0.63;0.63;;;;;6.30;95439.00;;;;5073262;28;20204;-65
2023/03/25 08:48:45;;;;;;;0.60;0.60;;;;;6.30;95434.00;;;;5074095;28;20187;-65
2023/03/25 08:51:13;;;;;;;0.60;0.60;;;;;6.40;95425.00;;;;5073833;28;20222;-64
2023/03/25 08:53:41;;;;;;;0.60;0.60;;;;;6.50;95424.00;;;;5073245;28;20230;-66
2023/03/25 08:56:09;;;;;;;0.60;0.60;;;;;6.60;95416.00;;;;5072277;28;20662;-66
2023/03/25 08:58:37;;;;;;;1.00;0.90;;;;;6.90;95414.00;;;;5072105;28;20554;-67
2023/03/25 09:01:06;;;;;;;0.50;0.50;;;;;7.30;95385.00;;;;5073771;28;20194;-66
2023/03/25 09:03:36;;;;;;;0.60;0.60;;;;;7.50;95387.00;;;;5073136;28;20237;-66
2023/03/25 09:06:08;;;;;;;1.03;1.03;;;;;7.30;95395.00;;;;5073653;28;20214;-66
2023/03/25 09:08:36;;;;;;;0.60;0.60;;;;;7.60;95395.00;;;;5073420;28;20187;-65
2023/03/25 09:11:04;;;;;;;0.60;0.60;;;;;7.10;95407.00;;;;5072947;28;20679;-68
2023/03/25 09:13:32;;;;;;;0.50;0.50;;;;;7.30;95400.00;;;;5072888;28;20211;-67
2023/03/25 09:15:59;;;;;;;1.27;1.23;;;;;7.40;95394.00;;;;5073318;28;20270;-67
2023/03/25 09:18:30;;;;;;;0.60;0.60;;;;;7.50;95400.00;;;;5071676;28;20195;-68
2023/03/25 09:20:59;;;;;;;0.60;0.60;;;;;7.50;95394.00;;;;5073293;28;20262;-67
2023/03/25 09:23:27;;;;;;;0.60;0.60;;;;;7.70;95391.00;;;;5071594;28;20686;-67
2023/03/25 09:25:55;;;;;;;0.60;0.60;;;;;7.70;95387.00;;;;5073641;28;20558;-67
2023/03/25 09:28:23;;;;;;;0.50;0.50;;;;;7.70;95373.00;;;;5073207;28;20546;-67
2023/03/25 09:30:50;;;;;;;0.60;0.60;;;;;8.10;95380.00;;;;5073014;28;20225;-66
2023/03/25 09:33:18;;;;;;;0.50;0.50;;;;;7.60;95391.00;;;;5072880;28;20219;-66
2023/03/25 09:35:47;;;;;;;0.60;0.60;;;;;7.40;95387.00;;;;5073340;28;20196;-67
2023/03/25 09:38:14;;;;;;;0.60;0.60;;;;;7.60;95375.00;;;;5072854;28;20662;-66
2023/03/25 09:40:42;;;;;;;0.60;0.60;;;;;7.40;95387.00;;;;5074865;28;20192;-66
2023/03/25 09:43:32;;;;;;;0.60;0.60;;;;;7.90;95383.00;;;;5076876;28;20552;-65
2023/03/25 09:46:01;;;;;;;0.50;0.50;;;;;7.70;95409.00;;;;5077128;28;20267;-66
2023/03/25 09:48:34;;;;;;;0.60;0.60;;;;;7.80;95394.00;;;;5076994;28;20265;-66
2023/03/25 09:51:05;;;;;;;0.50;0.50;;;;;7.80;95387.00;;;;5076525;28;20203;-66
2023/03/25 09:53:38;;;;;;;0.80;0.80;;;;;7.90;95380.00;;;;5075368;28;20226;-66
2023/03/25 09:56:11;;;;;;;0.50;0.50;;;;;8.00;95380.00;;;;5077357;28;20249;-66
2023/03/25 09:58:42;;;;;;;0.50;0.50;;;;;8.30;95382.00;;;;5076855;28;20580;-66
2023/03/25 10:01:26;;;;;;;0.60;0.60;;;;;8.00;95403.00;;;;5076671;28;20508;-59
2023/03/25 10:04:02;;;;;;;0.60;0.60;;;;;8.00;95397.00;;;;5076458;28;20264;-57
2023/03/25 10:06:42;;;;;;;1.00;1.00;;;8.60;72.00;8.00;95382.00;;;;5076409;28;20661;-57
2023/03/25 10:09:33;;;;;;;0.70;0.70;;;;;7.80;95384.00;;;;5076720;28;20259;-57
2023/03/25 10:12:14;;;;;;;1.80;0.73;;;8.70;73.10;8.50;95372.00;;;;5076469;28;20190;-57
2023/03/25 10:15:04;;;;;;;0.90;0.90;;;9.00;70.00;8.60;95391.00;;;;5076730;28;20191;-57
2023/03/25 10:17:53;;;;;;;0.60;0.60;;;9.20;69.80;8.90;95394.00;;;;5076526;28;20180;-57
2023/03/25 10:20:31;;;;;;;0.50;0.50;;;;;8.60;95403.00;;;;5076167;28;20184;-57
2023/03/25 10:23:07;;;;;;;0.93;0.93;;;;;8.50;95398.00;;;;5076293;28;20211;-57
2023/03/25 10:25:40;;;;;;;0.60;0.60;;;;;8.40;95390.00;;;;5074688;28;20198;-57
2023/03/25 10:28:12;;;;;;;0.60;0.60;;;;;8.50;95384.00;;;;5076102;28;20184;-57
2023/03/25 10:30:41;;;;;;;0.60;0.60;;;;;8.90;95380.00;;;;5075951;28;20207;-57
2023/03/25 10:33:17;;;;;;;0.50;0.50;;;;;9.40;95376.00;;;;5074711;28;20222;-57
2023/03/25 10:35:47;;;;;;;0.50;0.50;;;;;8.80;95383.00;;;;5076173;28;20205;-57
2023/03/25 10:38:19;;;;;;;0.83;0.83;;;;;9.00;95402.00;;;;5076298;28;20551;-57
2023/03/25 10:40:50;;;;;;;0.50;0.50;;;;;8.50;95408.00;;;;5075799;28;20187;-57
2023/03/25 10:43:25;;;;;;;0.50;0.50;;;;;8.60;95425.00;;;;5075950;28;20755;-57
2023/03/25 10:45:57;;;;;;;0.90;0.80;;;;;8.70;95395.00;;;;5076193;28;20189;-57
2023/03/25 10:48:26;;;;;;;0.50;0.50;;;;;8.60;95404.00;;;;5075864;28;20543;-57
2023/03/25 10:51:00;;;;;;;0.50;0.50;;;;;9.40;95391.00;;;;5075724;28;20215;-57
2023/03/25 10:53:30;;;;;;;1.07;1.07;;;;;9.00;95438.00;;;;5074336;28;20220;-57
2023/03/25 10:56:02;;;;;;;0.60;0.60;;;;;9.20;95396.00;;;;5075567;28;20662;-57
2023/03/25 10:58:31;;;;;;;0.50;0.50;;;;;9.00;95405.00;;;;5075706;28;20529;-57
2023/03/25 11:01:00;;;;;;;0.70;0.70;;;;;8.90;95397.00;;;;5074108;28;20192;-57
2023/03/25 11:03:32;;;;;;;0.60;0.60;;;;;9.10;95397.00;;;;5075346;28;20827;-57
2023/03/25 11:06:00;;;;;;;0.60;0.60;;;;;9.60;95411.00;;;;5074285;28;20194;-58
2023/03/25 11:08:28;;;;;;;0.57;0.57;;;;;9.60;95396.00;;;;5075300;28;20271;-57
2023/03/25 11:10:59;;;;;;;0.57;0.57;;;;;9.70;95379.00;;;;5075273;28;20220;-57
2023/03/25 11:13:28;;;;;;;0.70;0.70;;;;;9.70;95393.00;;;;5075126;28;20211;-57
2023/03/25 11:15:59;;;;;;;0.60;0.60;;;;;9.60;95404.00;;;;5075142;28;20211;-58
2023/03/25 11:18:31;;;;;;;0.50;0.50;;;10.50;55.60;10.00;95394.00;;;;5075353;28;20583;-57
2023/03/25 11:21:03;;;;;;;0.60;0.60;;;;;10.30;95379.00;;;;5075050;28;20215;-57
2023/03/25 11:23:35;;;;;;;0.50;0.50;;;;;10.00;95361.00;;;;5075338;28;20223;-58
2023/03/25 11:26:06;;;;;;;0.60;0.60;;;;;10.30;95366.00;;;;5075529;28;20183;-58
2023/03/25 11:28:38;;;;;;;0.60;0.60;;;;;10.30;95357.00;;;;5075058;28;20203;-57
2023/03/25 11:31:09;;;;;;;0.70;0.70;;;;;10.80;95387.00;;;;5075360;28;20206;-57
2023/03/25 11:33:37;;;;;;;0.50;0.50;;;;;10.40;95424.00;;;;5075087;28;20217;-58
2023/03/25 11:36:22;;;;;;;0.73;0.73;;;;;10.00;95403.00;;;;5074389;28;20665;-57
2023/03/25 11:38:57;;;;;;;0.70;0.70;;;;;9.90;95388.00;;;;5073940;28;20242;-57
2023/03/25 11:41:28;;;;;;;0.70;0.70;;;;;9.20;95404.00;;;;5074787;28;20254;-57
2023/03/25 11:43:55;;;;;;;0.50;0.50;;;;;9.70;95385.00;;;;5074351;28;20694;-57
2023/03/25 11:46:23;;;;;;;5.33;1.90;;;;;9.70;95413.00;;;;5074729;28;20202;-57
2023/03/25 11:48:51;;;;;;;3.73;0.80;;;;;9.30;95407.00;;;;5074861;28;20192;-57
2023/03/25 11:51:24;;;;;;;0.60;0.60;;;10.20;55.40;9.50;95404.00;;;;5074329;28;20215;-58
2023/03/25 11:53:57;;;;;;;0.50;0.50;;;;;9.10;95420.00;;;;5074350;28;20211;-57
2023/03/25 11:56:30;;;;;;;0.50;0.50;;;;;8.90;95387.00;;;;5074478;28;20188;-58
2023/03/25 11:59:00;;;;;;;0.63;0.63;;;;;8.80;95408.00;;;;5074351;28;20211;-57
2023/03/25 12:01:36;;;;;;;0.70;0.70;;;;;9.30;95362.00;;;;5074488;28;20180;-57
2023/03/25 12:04:12;;;;;;;0.80;0.80;;;;;9.60;95368.00;;;;5073889;28;20207;-57
2023/03/25 12:06:54;;;;;;;0.93;0.93;;;;;9.80;95356.00;;;;5074423;28;20232;-58
2023/03/25 12:09:23;;;;;;;0.70;0.70;;;;;10.40;95366.00;;;;5074331;28;20175;-57
2023/03/25 12:12:02;;;;;;;0.60;0.60;;;;;10.10;95373.00;;;;5073953;28;20240;-58
2023/03/25 12:14:39;;;;;;;0.50;0.50;;;;;10.30;95402.00;;;;5074176;28;20226;-57
2023/03/25 12:17:17;;;;;;;0.60;0.60;;;;;10.10;95400.00;;;;5073988;28;20195;-57
2023/03/25 12:19:52;;;;;;;3.40;1.47;;;;;9.90;95424.00;;;;5073895;28;20198;-58
2023/03/25 12:22:38;;;;;;;0.60;0.60;;;;;9.20;95446.00;;;;5074304;28;20202;-58
2023/03/25 12:25:21;;;;;;;0.50;0.50;;;;;8.80;95442.00;;;;5073992;28;20539;-57
2023/03/25 12:28:02;;;;;;;0.50;0.50;;;;;8.50;95484.00;;;;5074049;28;20536;-57
2023/03/25 12:30:43;;;;;;;0.57;0.57;;;;;8.10;95448.00;;;;5072484;28;20564;-58
2023/03/25 12:33:23;;;;;;;0.63;0.63;;;;;7.80;95481.00;;;;5073715;28;20211;-57
2023/03/25 12:36:05;;;;;;;0.60;0.60;;;;;7.80;95450.00;;;;5073564;28;20184;-58
2023/03/25 12:38:43;;;;;;;1.33;1.23;;;;;8.20;95404.00;;;;5074117;28;20183;-57
2023/03/25 12:41:24;;;;;;;0.70;0.70;;;;;9.00;95434.00;;;;5073920;28;20175;-57